Ocean Sapphire — VRKL8 — position and weather

sailwx.info

Track history (hours):
 
Tides and Currents Weather Stations Pressure Air Temp Water Temp Dewpoint Dewpoint Depression Visibility Wind Speed Wind Dir Waves Ship Positions

Ocean Sapphire

Last reported at 2016-Nov-14 23:17 UTC. Time now 2016-Dec-03 04:38 UTC.
Position S 19°34' E 118°24'.
Warning: this ship's position is 18 days out of date.

Length 229 m; draft 15.1 m.

Type: Cargo ship. MMSI: 477065400.

Date/timePositionNaut miles runAvg speedWind from/ knotsBaromVisibWave heightAir tempDewpointWater temp
2016-Nov-14 23:17S 19°34' E 118°24'29 7.7
2016-Nov-14 19:33S 20°03' E 118°25'18 0.7
2016-Nov-13 18:04S 20°19' E 118°34'0 0.7
2016-Nov-13 17:34S 20°19' E 118°34'16 8.0
2016-Nov-13 15:31S 20°03' E 118°33'11 5.5
2016-Nov-13 13:33S 19°54' E 118°27'3010.0
2016-Nov-13 10:33S 19°24' E 118°20'2110.1
2016-Nov-13 08:29S 19°04' E 118°13'29 9.0
2016-Nov-13 05:18S 18°37' E 118°07'18 8.7
2016-Nov-13 03:12S 18°19' E 118°02'91 9.4
2016-Nov-12 17:30S 16°50' E 117°42'  
Track history (hours):
 
Tides and Currents Weather Stations Pressure Air Temp Water Temp Dewpoint Dewpoint Depression Visibility Wind Speed Wind Dir Waves Ship Positions

Ocean Sapphire

Last reported at 2016-Nov-14 23:17 UTC. Time now 2016-Dec-03 04:38 UTC.
Position S 19°34' E 118°24'.
Warning: this ship's position is 18 days out of date.

Length 229 m; draft 15.1 m.

Type: Cargo ship. MMSI: 477065400.

Date/timePositionNaut miles runAvg speedWind from/ knotsBaromVisibWave heightAir tempDewpointWater temp
2016-Nov-14 23:17S 19°34' E 118°24'29 7.7
2016-Nov-14 19:33S 20°03' E 118°25'18 0.7
2016-Nov-13 18:04S 20°19' E 118°34'0 0.7
2016-Nov-13 17:34S 20°19' E 118°34'16 8.0
2016-Nov-13 15:31S 20°03' E 118°33'11 5.5
2016-Nov-13 13:33S 19°54' E 118°27'3010.0
2016-Nov-13 10:33S 19°24' E 118°20'2110.1
2016-Nov-13 08:29S 19°04' E 118°13'29 9.0
2016-Nov-13 05:18S 18°37' E 118°07'18 8.7
2016-Nov-13 03:12S 18°19' E 118°02'91 9.4
2016-Nov-12 17:30S 16°50' E 117°42'  

Dump ship's entire track history